Time;durP1;ratioP1;P1;durP2;ratioP2;P2;SDS_P1;SDS_P2;PMS_P1;PMS_P2;Temp;Humidity;BMP_temperature;BMP_pressure;BME280_temperature;BME280_humidity;BME280_pressure;Samples;Min_cycle;Max_cycle;Signal;HPM_P1;HPM_P2
2022/11/14 00:00:02;;;;;;;9.87;6.70;;;5.20;99.90;;;;;;6156386;23;20162;-42
2022/11/14 00:02:28;;;;;;;9.10;6.63;;;5.20;99.90;;;;;;6155972;23;20154;-44
2022/11/14 00:04:53;;;;;;;9.53;6.40;;;5.20;99.90;;;;;;6155874;23;20167;-41
2022/11/14 00:07:19;;;;;;;7.63;5.80;;;5.20;99.90;;;;;;6156807;23;20178;-43
2022/11/14 00:09:44;;;;;;;8.83;6.17;;;5.20;99.90;;;;;;6155861;23;20190;-43
2022/11/14 00:12:11;;;;;;;7.80;5.93;;;5.10;99.90;;;;;;6156212;23;20165;-42
2022/11/14 00:14:37;;;;;;;7.60;5.80;;;5.10;99.90;;;;;;6155879;23;20213;-43
2022/11/14 00:17:03;;;;;;;10.40;6.40;;;5.00;99.90;;;;;;6156118;23;20256;-45
2022/11/14 00:19:29;;;;;;;8.40;6.17;;;4.90;99.90;;;;;;6156091;23;20232;-43
2022/11/14 00:21:55;;;;;;;8.57;6.30;;;4.90;99.90;;;;;;6156021;23;20249;-44
2022/11/14 00:24:20;;;;;;;8.17;5.93;;;4.90;99.90;;;;;;6156156;23;20161;-44
2022/11/14 00:26:46;;;;;;;6.90;5.40;;;4.80;99.90;;;;;;6155847;23;20159;-42
2022/11/14 00:29:13;;;;;;;7.87;5.87;;;4.80;99.90;;;;;;6155757;23;20185;-44
2022/11/14 00:31:39;;;;;;;7.97;5.50;;;4.70;99.90;;;;;;6129694;23;20626;-42
2022/11/14 00:34:05;;;;;;;7.80;5.27;;;4.70;99.90;;;;;;6156102;23;20233;-42
2022/11/14 00:36:31;;;;;;;6.77;4.80;;;4.60;99.90;;;;;;6155593;23;20241;-41
2022/11/14 00:38:56;;;;;;;7.10;4.60;;;4.70;99.90;;;;;;6155734;23;20170;-42
2022/11/14 00:41:22;;;;;;;7.20;5.10;;;4.70;99.90;;;;;;6156081;23;20154;-42
2022/11/14 00:43:47;;;;;;;7.00;4.90;;;4.90;99.90;;;;;;6156442;23;20176;-42
2022/11/14 00:46:13;;;;;;;7.53;5.63;;;4.90;99.90;;;;;;6155788;23;20162;-43
2022/11/14 00:48:39;;;;;;;7.40;5.47;;;5.00;99.90;;;;;;6156407;23;20253;-44
2022/11/14 00:51:04;;;;;;;8.17;5.30;;;4.90;99.90;;;;;;6155717;23;20608;-43
2022/11/14 00:53:30;;;;;;;9.37;4.83;;;4.90;99.90;;;;;;6156576;23;20542;-42
2022/11/14 00:55:56;;;;;;;5.60;4.80;;;4.80;99.90;;;;;;6157553;23;20224;-45
2022/11/14 00:58:21;;;;;;;6.70;5.07;;;4.80;99.90;;;;;;6157557;23;20197;-44
2022/11/14 01:00:47;;;;;;;6.80;5.57;;;4.70;99.90;;;;;;6158347;23;20154;-43
2022/11/14 01:03:12;;;;;;;8.03;5.17;;;4.70;99.90;;;;;;6157794;23;20155;-42
2022/11/14 01:05:49;;;;;;;8.20;5.33;;;4.60;99.90;;;;;;6157878;23;20230;-43
2022/11/14 01:08:16;;;;;;;8.40;5.77;;;4.60;99.90;;;;;;6157915;23;20497;-41
2022/11/14 01:10:46;;;;;;;8.57;5.43;;;4.50;99.90;;;;;;6157441;23;20154;-44
2022/11/14 01:13:12;;;;;;;8.00;5.40;;;4.50;99.90;;;;;;6157461;23;20164;-43
2022/11/14 01:15:43;;;;;;;7.27;5.37;;;4.40;99.90;;;;;;6157368;23;20510;-43
2022/11/14 01:18:11;;;;;;;10.47;5.60;;;4.30;99.90;;;;;;6157364;23;20262;-44
2022/11/14 01:20:45;;;;;;;7.40;5.20;;;4.30;99.90;;;;;;6157277;23;20189;-41
2022/11/14 01:23:12;;;;;;;8.17;5.37;;;4.10;99.90;;;;;;6157329;23;20158;-43
2022/11/14 01:25:39;;;;;;;7.37;5.73;;;4.10;99.90;;;;;;6157414;23;20233;-44
2022/11/14 01:28:09;;;;;;;7.50;5.40;;;4.10;99.90;;;;;;6156967;23;20208;-44
2022/11/14 01:30:36;;;;;;;6.73;5.00;;;4.00;99.90;;;;;;6157347;23;20224;-45
2022/11/14 01:33:02;;;;;;;8.00;5.63;;;4.00;99.90;;;;;;6157312;23;20154;-41
2022/11/14 01:35:28;;;;;;;7.87;5.27;;;4.00;99.90;;;;;;6157445;23;20518;-43
2022/11/14 01:37:53;;;;;;;7.53;5.40;;;4.10;99.90;;;;;;6157236;23;20170;-43
2022/11/14 01:40:19;;;;;;;6.53;4.77;;;4.10;99.90;;;;;;6157187;23;20154;-44
2022/11/14 01:43:24;;;;;;;8.20;5.77;;;4.20;99.90;;;;;;6157048;23;20185;-43
2022/11/14 01:45:56;;;;;;;9.97;5.40;;;4.20;99.90;;;;;;6038864;23;20167;-44
2022/11/14 01:48:27;;;;;;;6.83;5.37;;;4.20;99.90;;;;;;6039143;23;20184;-44
2022/11/14 01:50:57;;;;;;;8.00;5.67;;;4.20;99.90;;;;;;6104276;23;20170;-43
2022/11/14 01:53:24;;;;;;;7.50;5.93;;;4.10;99.90;;;;;;6157907;23;20577;-44
2022/11/14 01:55:51;;;;;;;7.40;5.60;;;4.20;99.90;;;;;;6155464;23;20182;-42
2022/11/14 01:58:16;;;;;;;7.53;5.40;;;4.20;99.90;;;;;;6157008;23;20260;-44
2022/11/14 02:00:43;;;;;;;6.63;5.10;;;4.10;99.90;;;;;;6157086;23;20240;-42
2022/11/14 02:03:12;;;;;;;9.30;5.40;;;4.10;99.90;;;;;;6157014;23;20662;-41
2022/11/14 02:05:38;;;;;;;6.90;5.17;;;4.10;99.90;;;;;;6157254;23;20461;-43
2022/11/14 02:08:04;;;;;;;10.07;5.00;;;4.10;99.90;;;;;;6156899;23;20204;-42
2022/11/14 02:10:29;;;;;;;8.93;4.70;;;4.10;99.90;;;;;;6157010;23;20162;-41
2022/11/14 02:12:55;;;;;;;8.27;4.60;;;4.20;99.90;;;;;;6156929;23;20240;-40
2022/11/14 02:15:21;;;;;;;9.37;5.03;;;4.20;99.90;;;;;;6157108;23;20166;-42
2022/11/14 02:17:46;;;;;;;6.37;4.73;;;4.30;99.90;;;;;;6157215;23;20551;-42
2022/11/14 02:20:12;;;;;;;8.47;4.53;;;4.40;99.90;;;;;;6157307;23;20155;-44
2022/11/14 02:22:39;;;;;;;6.80;4.23;;;4.50;99.90;;;;;;6156798;23;20149;-41
2022/11/14 02:25:06;;;;;;;6.20;4.10;;;4.60;99.90;;;;;;6156742;23;20671;-44
2022/11/14 02:27:33;;;;;;;6.53;4.50;;;4.70;99.90;;;;;;6156698;23;20193;-43
2022/11/14 02:30:07;;;;;;;6.73;4.47;;;4.80;99.90;;;;;;6156665;23;20233;-42
2022/11/14 02:32:33;;;;;;;11.20;5.00;;;4.80;99.90;;;;;;6157042;23;20160;-44
2022/11/14 02:34:59;;;;;;;6.80;5.00;;;4.80;99.90;;;;;;6157356;23;20631;-43
2022/11/14 02:37:24;;;;;;;8.93;5.43;;;4.80;99.90;;;;;;6156483;23;20181;-43
2022/11/14 02:39:50;;;;;;;9.20;5.13;;;4.70;99.90;;;;;;6156966;23;20153;-42
2022/11/14 02:42:15;;;;;;;6.33;4.80;;;4.50;99.90;;;;;;6156634;23;20153;-42
2022/11/14 02:44:41;;;;;;;8.13;4.80;;;4.50;99.90;;;;;;6156532;23;20164;-44
2022/11/14 02:47:06;;;;;;;5.97;4.47;;;4.40;99.90;;;;;;6156638;23;20165;-43
2022/11/14 02:49:32;;;;;;;6.53;4.83;;;4.20;99.90;;;;;;6156415;23;20658;-42
2022/11/14 02:51:57;;;;;;;7.33;5.10;;;4.10;99.90;;;;;;6156904;23;20626;-44
2022/11/14 02:54:23;;;;;;;6.53;4.83;;;4.00;99.90;;;;;;6130464;23;20168;-44
2022/11/14 02:56:48;;;;;;;8.23;4.70;;;3.90;99.90;;;;;;6156613;23;20620;-45
2022/11/14 02:59:14;;;;;;;7.83;5.40;;;3.90;99.90;;;;;;6157040;23;20643;-42
2022/11/14 03:01:39;;;;;;;8.23;5.10;;;3.90;99.90;;;;;;6156702;23;20461;-42
2022/11/14 03:04:05;;;;;;;6.30;4.83;;;4.00;99.90;;;;;;6156209;23;20237;-41
2022/11/14 03:06:30;;;;;;;17.90;5.20;;;4.00;99.90;;;;;;6156493;23;20566;-43
2022/11/14 03:08:56;;;;;;;9.67;5.00;;;4.10;99.90;;;;;;6157246;23;20476;-44
2022/11/14 03:11:22;;;;;;;6.73;4.90;;;4.30;99.90;;;;;;6156977;23;20158;-43
2022/11/14 03:13:47;;;;;;;6.70;4.87;;;4.40;99.90;;;;;;6156783;23;20149;-43
2022/11/14 03:16:13;;;;;;;5.27;4.43;;;4.50;99.90;;;;;;6156343;23;20173;-43
2022/11/14 03:18:39;;;;;;;7.67;4.63;;;4.60;99.90;;;;;;6156160;23;20177;-44
2022/11/14 03:21:10;;;;;;;8.33;4.97;;;4.80;99.90;;;;;;6156260;23;20158;-42
2022/11/14 03:23:36;;;;;;;8.30;4.93;;;4.90;99.90;;;;;;6156498;23;20161;-43
2022/11/14 03:26:03;;;;;;;7.07;4.53;;;5.00;99.90;;;;;;6156533;23;20158;-44
2022/11/14 03:28:29;;;;;;;7.67;4.97;;;5.10;99.90;;;;;;6130500;23;20260;-43
2022/11/14 03:30:54;;;;;;;7.87;5.33;;;5.10;99.90;;;;;;6156271;23;20185;-44
2022/11/14 03:33:20;;;;;;;5.93;4.27;;;5.10;99.90;;;;;;6156809;23;20166;-44
2022/11/14 03:35:47;;;;;;;5.93;4.63;;;5.20;99.90;;;;;;6156047;23;20182;-44
2022/11/14 03:38:13;;;;;;;8.77;5.30;;;5.20;99.90;;;;;;6156255;23;20566;-43
2022/11/14 03:40:39;;;;;;;9.00;5.40;;;5.10;99.90;;;;;;6156446;23;20154;-41
2022/11/14 03:43:05;;;;;;;7.30;5.07;;;5.20;99.90;;;;;;6156091;23;20161;-44
2022/11/14 03:45:30;;;;;;;7.23;5.17;;;5.10;99.90;;;;;;6156189;23;20153;-43
2022/11/14 03:47:56;;;;;;;7.20;5.50;;;5.10;99.90;;;;;;6156417;23;20201;-43
2022/11/14 03:50:21;;;;;;;8.13;5.30;;;5.00;99.90;;;;;;6156167;23;20150;-43
2022/11/14 03:52:50;;;;;;;8.40;5.53;;;5.00;99.90;;;;;;6156710;23;20149;-44
2022/11/14 03:55:15;;;;;;;6.90;5.07;;;4.90;99.90;;;;;;6157031;23;20188;-44
2022/11/14 03:57:41;;;;;;;5.90;4.60;;;4.90;99.90;;;;;;6155987;23;20533;-44
2022/11/14 04:00:08;;;;;;;6.67;4.90;;;4.90;99.90;;;;;;6155944;23;20154;-44
2022/11/14 04:02:33;;;;;;;7.37;4.40;;;4.90;99.90;;;;;;6155874;23;20662;-43
2022/11/14 04:04:59;;;;;;;10.20;5.30;;;5.00;99.90;;;;;;6155746;23;20193;-42
2022/11/14 04:07:24;;;;;;;7.60;4.87;;;5.10;99.90;;;;;;6155869;23;20505;-43
2022/11/14 04:09:50;;;;;;;7.83;5.07;;;5.00;99.90;;;;;;6155959;23;20600;-42
2022/11/14 04:12:17;;;;;;;8.50;5.47;;;5.00;99.90;;;;;;6156149;23;20165;-42
2022/11/14 04:14:42;;;;;;;7.73;4.70;;;5.00;99.90;;;;;;6156237;23;20165;-43
2022/11/14 04:17:08;;;;;;;8.50;5.13;;;5.00;99.90;;;;;;6156058;23;20185;-44
2022/11/14 04:19:34;;;;;;;8.17;5.63;;;5.00;99.90;;;;;;6155853;23;20612;-42
2022/11/14 04:21:59;;;;;;;7.90;5.10;;;5.00;99.90;;;;;;6155852;23;20232;-42
2022/11/14 04:24:25;;;;;;;7.00;5.03;;;5.00;99.90;;;;;;6155908;23;20154;-44
2022/11/14 04:26:50;;;;;;;7.30;5.10;;;5.00;99.90;;;;;;6156098;23;20164;-44
2022/11/14 04:29:16;;;;;;;8.17;4.77;;;5.00;99.90;;;;;;6156853;23;20181;-42
2022/11/14 04:31:41;;;;;;;7.20;5.23;;;5.00;99.90;;;;;;6158559;23;20502;-44
2022/11/14 04:34:07;;;;;;;7.03;5.10;;;5.00;99.90;;;;;;6157870;23;20153;-44
2022/11/14 04:36:32;;;;;;;7.97;5.57;;;5.00;99.90;;;;;;6157740;23;20209;-44
2022/11/14 04:38:58;;;;;;;6.53;4.93;;;5.00;99.90;;;;;;6157723;23;20196;-43
2022/11/14 04:41:24;;;;;;;7.20;5.00;;;4.90;99.90;;;;;;6157919;23;20164;-43
2022/11/14 04:43:49;;;;;;;6.73;4.87;;;4.90;99.90;;;;;;6157755;23;20162;-42
2022/11/14 04:46:15;;;;;;;5.27;4.10;;;4.90;99.90;;;;;;6158082;23;20168;-42
2022/11/14 04:48:40;;;;;;;6.40;4.73;;;4.90;99.90;;;;;;6158042;23;20265;-43
2022/11/14 04:51:06;;;;;;;8.60;5.37;;;4.90;99.90;;;;;;6158057;23;20203;-44
2022/11/14 04:53:31;;;;;;;6.57;5.23;;;4.90;99.90;;;;;;6157819;23;20161;-42
2022/11/14 04:55:57;;;;;;;7.63;5.00;;;4.90;99.90;;;;;;6157916;23;20510;-43
2022/11/14 04:58:23;;;;;;;6.03;4.67;;;4.90;99.90;;;;;;6157591;23;20180;-43
2022/11/14 05:00:48;;;;;;;6.47;4.80;;;4.90;99.90;;;;;;6158164;23;20161;-44
2022/11/14 05:03:14;;;;;;;5.50;4.43;;;4.90;99.90;;;;;;6157385;23;20154;-43
2022/11/14 05:05:40;;;;;;;8.73;5.13;;;5.00;99.90;;;;;;6157875;23;20153;-42
2022/11/14 05:08:05;;;;;;;5.03;3.80;;;5.00;99.90;;;;;;6157931;23;20174;-43
2022/11/14 05:10:31;;;;;;;6.80;5.43;;;5.00;99.90;;;;;;6157515;23;20164;-44
2022/11/14 05:12:56;;;;;;;7.77;4.90;;;5.10;99.90;;;;;;6157573;23;20210;-43
2022/11/14 05:15:22;;;;;;;7.03;4.83;;;5.00;99.90;;;;;;6157656;23;20158;-43
2022/11/14 05:17:47;;;;;;;6.13;4.80;;;5.10;99.90;;;;;;6157391;23;20174;-44
2022/11/14 05:20:13;;;;;;;7.50;4.90;;;5.10;99.90;;;;;;6157485;23;20584;-44
2022/11/14 05:22:38;;;;;;;6.90;4.67;;;5.10;99.90;;;;;;6157460;23;20588;-43
2022/11/14 05:25:05;;;;;;;9.13;5.40;;;5.00;99.90;;;;;;6158207;23;20569;-44
2022/11/14 05:27:31;;;;;;;8.20;5.20;;;5.00;99.90;;;;;;6157143;23;20731;-44
2022/11/14 05:29:56;;;;;;;7.80;4.90;;;5.00;99.90;;;;;;6158088;23;20177;-44
2022/11/14 05:32:22;;;;;;;7.47;5.10;;;5.00;99.90;;;;;;6157682;23;20165;-44
2022/11/14 05:34:48;;;;;;;6.50;5.07;;;5.00;99.90;;;;;;6157255;23;20160;-44
2022/11/14 05:37:13;;;;;;;8.00;5.07;;;5.00;99.90;;;;;;6157180;23;20249;-43
2022/11/14 05:39:39;;;;;;;8.20;5.33;;;4.90;99.90;;;;;;6157067;23;20150;-43
2022/11/14 05:42:05;;;;;;;10.33;5.60;;;4.90;99.90;;;;;;6157229;23;20168;-43
2022/11/14 05:44:31;;;;;;;6.30;5.17;;;4.90;99.90;;;;;;6157326;23;20160;-44
2022/11/14 05:46:56;;;;;;;10.13;5.53;;;4.90;99.90;;;;;;6157603;23;20618;-44
2022/11/14 05:49:22;;;;;;;9.40;5.10;;;4.90;99.90;;;;;;6157006;23;20174;-43
2022/11/14 05:51:47;;;;;;;7.87;5.30;;;4.90;99.90;;;;;;6157681;23;20158;-43
2022/11/14 05:54:13;;;;;;;11.57;5.73;;;4.90;99.90;;;;;;6157111;23;20158;-43
2022/11/14 05:56:39;;;;;;;8.57;5.27;;;4.80;99.90;;;;;;6130932;23;20275;-44
2022/11/14 05:59:04;;;;;;;8.33;6.17;;;4.80;99.90;;;;;;6156990;23;20178;-43
2022/11/14 06:01:30;;;;;;;8.87;5.77;;;4.90;99.90;;;;;;6157349;23;20157;-43
2022/11/14 06:03:56;;;;;;;8.90;6.10;;;4.80;99.90;;;;;;6156887;23;20174;-41
2022/11/14 06:06:21;;;;;;;6.70;5.20;;;4.80;99.90;;;;;;6156955;23;20229;-42
2022/11/14 06:08:48;;;;;;;7.77;4.93;;;4.70;99.90;;;;;;6157111;23;20630;-43
2022/11/14 06:11:16;;;;;;;9.50;6.13;;;4.70;99.90;;;;;;6157503;23;20571;-45
2022/11/14 06:13:42;;;;;;;7.67;5.23;;;4.70;99.90;;;;;;6156898;23;20154;-44
2022/11/14 06:16:13;;;;;;;8.27;5.80;;;4.60;99.90;;;;;;6156773;23;20184;-44
2022/11/14 06:18:39;;;;;;;9.17;5.67;;;4.60;99.90;;;;;;6156846;23;20224;-44
2022/11/14 06:21:06;;;;;;;8.53;6.03;;;4.60;99.90;;;;;;6156819;23;20162;-41
2022/11/14 06:23:31;;;;;;;7.13;5.47;;;4.60;99.90;;;;;;6156839;23;20520;-42
2022/11/14 06:26:01;;;;;;;12.20;6.57;;;4.50;99.90;;;;;;6157007;23;20161;-42
2022/11/14 06:28:27;;;;;;;8.40;6.10;;;4.40;99.90;;;;;;6156959;23;20208;-44
2022/11/14 06:31:00;;;;;;;10.20;5.53;;;4.40;99.90;;;;;;6156737;23;20153;-43
2022/11/14 06:33:27;;;;;;;9.80;5.50;;;4.30;99.90;;;;;;6157417;23;20177;-43
2022/11/14 06:36:00;;;;;;;7.20;5.33;;;4.30;99.90;;;;;;6156779;23;20600;-42
2022/11/14 06:38:26;;;;;;;10.90;6.43;;;4.20;99.90;;;;;;6156629;23;20178;-43
2022/11/14 06:40:59;;;;;;;11.20;6.13;;;4.30;99.90;;;;;;6156700;23;20150;-42
2022/11/14 06:43:25;;;;;;;12.40;5.57;;;4.30;99.90;;;;;;6156997;23;20176;-40
2022/11/14 06:45:53;;;;;;;7.93;5.40;;;4.30;99.90;;;;;;6156660;23;20620;-44
2022/11/14 06:48:19;;;;;;;8.17;5.40;;;4.30;99.90;;;;;;6156462;23;20177;-43
2022/11/14 06:50:54;;;;;;;9.23;5.97;;;4.30;99.90;;;;;;6156198;23;20233;-44
2022/11/14 06:53:20;;;;;;;7.93;6.03;;;4.30;99.90;;;;;;6156940;23;20482;-42
2022/11/14 06:55:57;;;;;;;9.93;6.80;;;4.40;99.90;;;;;;6157123;23;20479;-44
2022/11/14 06:58:27;;;;;;;9.97;6.17;;;4.40;99.90;;;;;;6130216;23;20173;-45
2022/11/14 07:00:53;;;;;;;11.03;6.87;;;4.40;99.90;;;;;;6156802;23;20157;-43
2022/11/14 07:03:19;;;;;;;9.87;6.50;;;4.50;99.90;;;;;;6156425;23;20158;-45
2022/11/14 07:05:45;;;;;;;9.50;6.67;;;4.50;99.90;;;;;;6156536;23;20603;-44
2022/11/14 07:08:10;;;;;;;9.00;6.47;;;4.50;99.90;;;;;;6130167;23;20182;-44
2022/11/14 07:10:36;;;;;;;10.60;6.10;;;4.50;99.90;;;;;;6156317;23;20165;-44
2022/11/14 07:13:02;;;;;;;11.43;7.63;;;4.50;99.90;;;;;;6156517;23;20192;-45
2022/11/14 07:15:27;;;;;;;11.30;7.50;;;4.50;99.90;;;;;;6156190;23;20153;-44
2022/11/14 07:17:53;;;;;;;13.43;8.23;;;4.60;99.90;;;;;;6156241;23;20650;-43
2022/11/14 07:20:18;;;;;;;19.90;7.97;;;4.60;99.90;;;;;;6156598;23;20208;-44
2022/11/14 07:22:47;;;;;;;20.73;9.07;;;4.60;99.90;;;;;;6156576;23;20199;-43
2022/11/14 07:25:13;;;;;;;14.40;5.57;;;4.60;99.90;;;;;;6156304;23;20177;-44
2022/11/14 07:27:38;;;;;;;17.67;9.00;;;4.60;99.90;;;;;;6156106;23;20213;-43
2022/11/14 07:30:05;;;;;;;12.27;7.60;;;4.60;99.90;;;;;;6156264;23;20168;-45
2022/11/14 07:32:30;;;;;;;11.00;7.53;;;4.70;99.90;;;;;;6156511;23;20185;-45
2022/11/14 07:34:56;;;;;;;10.30;6.90;;;4.70;99.90;;;;;;6156144;23;20161;-44
2022/11/14 07:37:21;;;;;;;10.30;6.60;;;4.70;99.90;;;;;;6156013;23;20181;-44
2022/11/14 07:39:47;;;;;;;15.23;9.20;;;4.70;99.90;;;;;;6156509;23;20204;-45
2022/11/14 07:42:12;;;;;;;14.80;9.40;;;4.70;99.90;;;;;;6156093;23;20156;-43
2022/11/14 07:44:38;;;;;;;12.50;7.70;;;4.80;99.90;;;;;;6156049;23;20192;-44
2022/11/14 07:47:03;;;;;;;15.93;8.80;;;4.80;99.90;;;;;;6156474;23;20154;-43
2022/11/14 07:49:29;;;;;;;14.73;8.60;;;4.80;99.90;;;;;;6156082;23;20228;-43
2022/11/14 07:51:55;;;;;;;14.80;9.57;;;4.80;99.90;;;;;;6156635;23;20508;-43
2022/11/14 07:54:20;;;;;;;16.70;10.97;;;4.80;99.90;;;;;;6156263;23;20173;-43
2022/11/14 07:56:46;;;;;;;19.07;10.73;;;4.80;99.90;;;;;;6155834;23;20177;-41
2022/11/14 07:59:11;;;;;;;15.03;10.53;;;4.80;99.90;;;;;;6155882;23;20173;-43
2022/11/14 08:01:37;;;;;;;14.97;9.93;;;4.80;99.90;;;;;;6156337;23;20153;-42
2022/11/14 08:04:02;;;;;;;16.47;10.30;;;4.80;99.90;;;;;;6155898;23;20193;-41
2022/11/14 08:06:28;;;;;;;17.17;10.57;;;4.80;99.90;;;;;;6156235;23;20165;-42
2022/11/14 08:08:54;;;;;;;20.43;8.67;;;4.80;99.90;;;;;;6156172;23;20208;-43
2022/11/14 08:11:46;;;;;;;21.07;9.53;;;4.80;99.90;;;;;;6155909;23;20181;-44
2022/11/14 08:14:05;;;;;;;17.30;11.37;;;4.90;99.90;;;;;;6155649;23;20192;-43
2022/11/14 08:16:31;;;;;;;13.63;8.77;;;4.90;99.90;;;;;;6155984;23;20174;-42
2022/11/14 08:18:56;;;;;;;20.33;11.60;;;4.90;99.90;;;;;;6155752;23;20240;-44
2022/11/14 08:21:22;;;;;;;24.27;12.27;;;4.90;99.90;;;;;;6155860;23;20158;-43
2022/11/14 08:23:47;;;;;;;23.47;13.67;;;5.00;99.90;;;;;;6156198;23;20157;-42
2022/11/14 08:26:13;;;;;;;20.70;14.00;;;5.00;99.90;;;;;;6156232;23;20159;-42
2022/11/14 08:28:38;;;;;;;24.63;11.83;;;5.00;99.90;;;;;;6155661;23;20260;-44
2022/11/14 08:31:04;;;;;;;22.30;14.40;;;5.00;99.90;;;;;;6156153;23;20166;-44
2022/11/14 08:33:30;;;;;;;21.20;12.70;;;5.10;99.90;;;;;;6156167;23;20283;-44
2022/11/14 08:36:02;;;;;;;16.07;10.33;;;5.10;99.90;;;;;;6155689;23;20177;-43
2022/11/14 08:38:30;;;;;;;23.13;14.50;;;5.20;99.90;;;;;;6156041;23;20177;-44
2022/11/14 08:41:03;;;;;;;25.87;14.13;;;5.20;99.90;;;;;;6155820;23;20150;-43
2022/11/14 08:43:30;;;;;;;23.00;12.60;;;5.30;99.90;;;;;;6155785;23;20282;-44
2022/11/14 08:45:58;;;;;;;25.27;15.83;;;5.30;99.90;;;;;;6155758;23;20185;-44
2022/11/14 08:48:23;;;;;;;24.93;15.23;;;5.40;99.90;;;;;;6155989;23;20189;-44
2022/11/14 08:50:49;;;;;;;26.23;16.07;;;5.50;99.90;;;;;;6155811;23;20159;-44
2022/11/14 08:53:14;;;;;;;26.90;15.73;;;5.50;99.90;;;;;;6156231;23;20166;-41
2022/11/14 08:55:43;;;;;;;21.23;13.17;;;5.60;99.90;;;;;;6155932;23;20233;-43
2022/11/14 08:58:09;;;;;;;25.17;15.40;;;5.70;99.90;;;;;;6129620;23;20713;-45
2022/11/14 09:00:34;;;;;;;23.73;14.90;;;5.80;99.90;;;;;;6155923;23;20181;-43
2022/11/14 09:03:00;;;;;;;23.13;14.93;;;5.80;99.90;;;;;;6156033;23;20593;-43
2022/11/14 09:05:26;;;;;;;34.07;16.37;;;5.90;99.90;;;;;;6156132;23;20154;-44
2022/11/14 09:07:51;;;;;;;27.03;17.03;;;6.00;99.90;;;;;;6155779;23;20183;-44
2022/11/14 09:10:17;;;;;;;27.60;16.50;;;6.10;99.90;;;;;;6154234;23;20166;-43
2022/11/14 09:12:42;;;;;;;30.30;16.93;;;6.20;99.90;;;;;;6155901;23;20253;-44
2022/11/14 09:15:08;;;;;;;27.80;17.00;;;6.30;99.90;;;;;;6157024;23;20146;-44
2022/11/14 09:17:34;;;;;;;28.37;16.37;;;6.40;99.90;;;;;;6157824;23;20258;-44
2022/11/14 09:19:59;;;;;;;24.90;15.87;;;6.50;99.90;;;;;;6158006;23;20656;-43
2022/11/14 09:22:25;;;;;;;23.23;15.07;;;6.50;99.90;;;;;;6157775;23;20159;-43
2022/11/14 09:24:51;;;;;;;27.67;16.63;;;6.60;99.90;;;;;;6157552;23;20601;-45
2022/11/14 09:27:17;;;;;;;21.30;14.00;;;6.60;99.90;;;;;;6157401;23;20159;-42
2022/11/14 09:29:42;;;;;;;28.23;16.10;;;6.70;99.90;;;;;;6157414;23;20159;-44
2022/11/14 09:32:08;;;;;;;30.23;16.70;;;6.70;99.90;;;;;;6158064;23;20460;-45
2022/11/14 09:34:36;;;;;;;29.37;15.40;;;6.80;99.90;;;;;;6157499;23;20183;-45
2022/11/14 09:37:01;;;;;;;25.83;15.53;;;6.90;99.90;;;;;;6157315;23;20517;-44
2022/11/14 09:39:27;;;;;;;26.77;16.03;;;6.90;99.90;;;;;;6158768;23;20175;-45
2022/11/14 09:42:03;;;;;;;28.83;16.57;;;7.00;99.90;;;;;;6157678;23;20228;-46
2022/11/14 09:44:48;;;;;;;25.27;15.13;;;7.00;99.90;;;;;;6157713;23;20196;-44
2022/11/14 09:47:20;;;;;;;23.03;14.57;;;7.10;99.90;;;;;;6157771;23;20194;-44
2022/11/14 09:49:48;;;;;;;27.03;16.03;;;7.10;99.90;;;;;;6158142;23;20198;-45
2022/11/14 09:52:34;;;;;;;24.53;14.27;;;7.20;99.90;;;;;;6155929;23;20633;-45
2022/11/14 09:55:20;;;;;;;26.13;14.70;;;7.30;99.90;;;;;;6157723;23;20227;-45
2022/11/14 09:57:46;;;;;;;21.73;11.60;;;7.30;99.90;;;;;;6157073;23;20215;-44
2022/11/14 10:00:23;;;;;;;23.60;15.23;;;7.40;99.90;;;;;;6157220;23;20157;-44
2022/11/14 10:03:32;;;;;;;24.00;14.33;;;7.40;99.90;;;;;;6157709;23;20590;-43
2022/11/14 10:06:38;;;;;;;20.70;11.37;;;7.40;99.90;;;;;;6038403;23;20621;-43
2022/11/14 10:09:30;;;;;;;25.67;14.33;;;7.50;99.90;;;;;;6145159;23;20191;-42
2022/11/14 10:12:10;;;;;;;23.20;13.23;;;7.50;99.90;;;;;;6156291;23;20173;-44
2022/11/14 10:14:51;;;;;;;19.97;10.93;;;7.50;99.90;;;;;;6157406;23;20176;-44
2022/11/14 10:17:35;;;;;;;26.93;13.00;;;7.60;99.90;;;;;;6157235;23;20180;-43
2022/11/14 10:20:20;;;;;;;19.30;11.00;;;7.60;99.90;;;;;;6156992;23;20157;-44
2022/11/14 10:23:20;;;;;;;16.97;10.20;;;7.70;99.90;;;;;;6157416;23;20148;-41
2022/11/14 10:26:07;;;;;;;14.73;8.07;;;7.70;99.90;;;;;;6156961;23;20142;-43
2022/11/14 10:28:39;;;;;;;21.50;11.80;;;7.70;99.90;;;;;;6157153;23;20261;-45
2022/11/14 10:31:32;;;;;;;21.27;11.03;;;7.80;99.90;;;;;;6156870;23;20154;-41
2022/11/14 10:34:27;;;;;;;17.00;8.53;;;7.80;99.90;;;;;;6157206;23;20142;-45
2022/11/14 10:37:16;;;;;;;18.60;11.90;;;7.90;99.90;;;;;;6157116;23;20169;-43
2022/11/14 10:39:54;;;;;;;12.77;7.60;;;7.90;99.90;;;;;;6157011;23;20142;-45
2022/11/14 10:42:36;;;;;;;18.27;9.83;;;7.90;99.90;;;;;;6156734;23;20156;-41
2022/11/14 10:45:25;;;;;;;12.70;7.90;;;7.90;99.90;;;;;;6156779;23;20150;-44
2022/11/14 10:48:08;;;;;;;17.93;11.50;;;7.90;99.90;;;;;;6157312;23;20177;-44
2022/11/14 10:51:00;;;;;;;14.30;9.03;;;8.00;99.90;;;;;;6156734;23;20580;-44
2022/11/14 10:53:50;;;;;;;18.03;10.63;;;8.10;99.90;;;;;;6157198;23;20150;-43
2022/11/14 10:56:16;;;;;;;17.07;9.20;;;8.20;99.90;;;;;;6156899;23;20176;-43
2022/11/14 10:58:43;;;;;;;15.97;9.50;;;8.40;99.90;;;;;;6156571;23;20181;-44
2022/11/14 11:01:31;;;;;;;14.30;8.03;;;8.40;99.90;;;;;;6156781;23;20157;-45
2022/11/14 11:03:57;;;;;;;14.17;9.40;;;8.50;99.90;;;;;;6156521;23;20487;-42
2022/11/14 11:06:27;;;;;;;14.73;8.23;;;8.50;99.90;;;;;;6156668;23;20184;-43
2022/11/14 11:11:40;;;;;;;11.63;6.17;;;8.70;99.90;;;;;;6156802;23;20165;-44
2022/11/14 11:14:18;;;;;;;9.70;5.57;;;8.80;99.90;;;;;;6156826;23;20165;-43
2022/11/14 11:16:45;;;;;;;13.70;8.87;;;8.90;99.90;;;;;;6156670;23;20181;-45
2022/11/14 11:19:29;;;;;;;11.17;7.30;;;8.90;99.90;;;;;;6156597;23;20184;-43
2022/11/14 11:21:55;;;;;;;15.10;9.00;;;8.90;99.90;;;;;;6156426;23;20138;-43
2022/11/14 11:24:39;;;;;;;12.27;7.27;;;9.00;99.90;;;;;;6130285;23;20246;-44
2022/11/14 11:27:26;;;;;;;14.37;7.33;;;8.90;99.90;;;;;;6156582;23;20228;-43
2022/11/14 11:30:19;;;;;;;11.20;6.70;;;8.90;99.90;;;;;;6156676;23;20185;-45
2022/11/14 11:32:45;;;;;;;9.70;6.00;;;9.00;99.90;;;;;;6156611;23;20209;-45
2022/11/14 11:35:13;;;;;;;9.23;6.37;;;9.00;99.90;;;;;;6156874;23;20596;-43
2022/11/14 11:37:48;;;;;;;7.60;5.13;;;9.00;99.90;;;;;;6156279;23;20212;-41
2022/11/14 11:40:25;;;;;;;9.27;6.30;;;9.00;99.90;;;;;;6156738;23;20143;-45
2022/11/14 11:43:02;;;;;;;9.73;6.10;;;9.10;99.90;;;;;;6156778;23;20150;-46
2022/11/14 11:45:31;;;;;;;9.50;6.83;;;9.10;99.90;;;;;;6156864;23;20446;-44
2022/11/14 11:48:02;;;;;;;14.33;7.53;;;9.10;99.90;;;;;;6156892;23;20489;-44
2022/11/14 11:50:29;;;;;;;13.13;7.20;;;9.20;99.90;;;;;;6161052;23;20146;-45
2022/11/14 11:53:25;;;;;;;12.03;6.60;;;9.20;99.90;;;;;;6158204;23;20195;-44
2022/11/14 11:55:55;;;;;;;11.23;6.27;;;9.30;99.90;;;;;;6135653;23;20167;-43
2022/11/14 11:58:36;;;;;;;9.77;6.23;;;9.40;99.90;;;;;;6156124;23;20263;-45
2022/11/14 12:01:02;;;;;;;8.93;6.80;;;9.40;99.90;;;;;;6156329;23;20148;-45
2022/11/14 12:03:28;;;;;;;10.30;6.93;;;9.50;99.90;;;;;;6156128;23;20195;-45
2022/11/14 12:06:14;;;;;;;13.03;7.53;;;9.60;99.90;;;;;;6156517;23;20146;-45
2022/11/14 12:09:10;;;;;;;12.63;7.40;;;9.60;99.90;;;;;;6156017;23;20256;-44
2022/11/14 12:11:40;;;;;;;9.87;6.33;;;9.70;99.90;;;;;;6156239;23;20192;-45
2022/11/14 12:14:24;;;;;;;9.40;6.70;;;9.80;99.90;;;;;;6156139;23;20149;-46
2022/11/14 12:17:05;;;;;;;9.77;5.93;;;9.80;99.90;;;;;;6157679;23;20549;-50
2022/11/14 12:20:01;;;;;;;9.90;6.47;;;9.80;99.90;;;;;;6157179;23;20189;-45
2022/11/14 12:22:54;;;;;;;10.43;6.60;;;9.80;99.90;;;;;;6156445;23;20467;-45
2022/11/14 12:25:33;;;;;;;7.70;5.10;;;9.80;99.90;;;;;;6156129;23;20149;-43
2022/11/14 12:28:20;;;;;;;9.00;6.00;;;9.70;99.90;;;;;;6155848;23;20639;-44
2022/11/14 12:30:54;;;;;;;9.53;5.83;;;9.60;99.90;;;;;;6159034;23;20183;-51
2022/11/14 12:33:27;;;;;;;10.27;6.60;;;9.60;99.90;;;;;;6160666;23;20145;-50
2022/11/14 12:35:56;;;;;;;8.87;6.03;;;9.60;99.90;;;;;;6160696;23;20145;-50
2022/11/14 12:38:22;;;;;;;7.67;6.03;;;9.50;99.90;;;;;;6161235;23;20193;-50
2022/11/14 12:40:54;;;;;;;9.80;6.60;;;9.60;99.90;;;;;;6160033;23;20592;-50
2022/11/14 12:43:38;;;;;;;7.77;5.43;;;9.60;99.90;;;;;;6160718;23;20212;-50
2022/11/14 12:46:08;;;;;;;10.30;6.43;;;9.60;99.90;;;;;;6134721;23;20162;-50
2022/11/14 12:48:40;;;;;;;9.40;5.93;;;9.70;99.90;;;;;;6160436;23;20176;-50
2022/11/14 12:51:28;;;;;;;11.50;6.97;;;9.80;99.90;;;;;;6162186;23;20678;-50
2022/11/14 12:53:56;;;;;;;10.63;6.50;;;9.80;99.90;;;;;;6162158;23;20161;-49
2022/11/14 12:56:29;;;;;;;9.27;6.33;;;9.80;99.90;;;;;;6161956;23;20177;-50
2022/11/14 12:59:10;;;;;;;10.27;6.50;;;9.80;99.90;;;;;;6162183;23;20640;-50
2022/11/14 13:01:50;;;;;;;10.93;6.43;;;9.80;99.90;;;;;;6162959;23;20202;-49
2022/11/14 13:04:42;;;;;;;8.63;6.30;;;9.80;99.90;;;;;;6161944;23;20507;-49